KMEZ

Mena Intermountain Municipal Airport

Mena, Arkansas, USA
METAR KMEZ 150055Z AUTO 00000KT 7SM CLR 26/26 A2995 RMK AO2
Observed Flight Rules
Aug-15 @ 00:55 UTC (10 minutes ago) Visual Flight Rules
Visibility Clouds
7 miles
  • Clear skies
Temperatures Readings
Current 26°C / 79°F
Dewpoint 26°C / 79°F
Humidity 100%
Altimeter 29.95" Hg
Pressure 1014 hPa
Elevation 329
METAR KMEZ 150055Z AUTO 00000KT 7SM CLR 26/26 A2995 RMK AO2
Observed Flight Rules
Aug-15 @ 00:55 UTC
(10 minutes ago)
VFR
Clouds
  • Clear skies
Temperature Dewpoint
26°C / 79°F 26°C / 79°F
Humidity Altimeter Pressure
100% 29.95" Hg 1014 hPa